createdAt,value
2019-01-12T00:02:07.756Z,-2.30
2019-01-12T00:04:37.008Z,-2.40
2019-01-12T00:07:06.549Z,-2.40
2019-01-12T00:09:35.995Z,-2.40
2019-01-12T00:12:05.988Z,-2.40
2019-01-12T00:14:38.687Z,-2.40
2019-01-12T00:17:08.427Z,-2.40
2019-01-12T00:19:38.407Z,-2.40
2019-01-12T00:22:08.911Z,-2.50
2019-01-12T00:24:38.670Z,-2.50
2019-01-12T00:27:08.470Z,-2.50
2019-01-12T00:29:38.369Z,-2.50
2019-01-12T00:32:08.268Z,-2.50
2019-01-12T00:34:38.128Z,-2.50
2019-01-12T00:37:07.288Z,-2.50
2019-01-12T00:39:37.227Z,-2.50
2019-01-12T00:42:26.327Z,-2.50
2019-01-12T00:44:56.128Z,-2.50
2019-01-12T00:47:25.868Z,-2.50
2019-01-12T00:49:55.448Z,-2.50
2019-01-12T00:52:25.269Z,-2.50
2019-01-12T00:55:01.389Z,-2.50
2019-01-12T00:57:31.057Z,-2.50
2019-01-12T01:00:01.376Z,-2.50
2019-01-12T01:02:31.681Z,-2.50
2019-01-12T01:05:01.108Z,-2.50
2019-01-12T01:07:31.279Z,-2.50
2019-01-12T01:10:00.941Z,-2.50
2019-01-12T01:12:30.401Z,-2.50
2019-01-12T01:15:00.180Z,-2.50
2019-01-12T01:17:30.221Z,-2.50
2019-01-12T01:19:59.342Z,-2.50
2019-01-12T01:22:29.122Z,-2.50
2019-01-12T01:24:58.561Z,-2.50
2019-01-12T01:27:28.681Z,-2.50
2019-01-12T01:29:58.340Z,-2.50
2019-01-12T01:32:27.881Z,-2.50
2019-01-12T01:34:57.361Z,-2.50
2019-01-12T01:37:26.720Z,-2.40
2019-01-12T01:39:56.101Z,-2.50
2019-01-12T01:42:25.641Z,-2.50
2019-01-12T01:44:55.019Z,-2.50
2019-01-12T01:47:24.421Z,-2.50
2019-01-12T01:49:53.940Z,-2.50
2019-01-12T01:52:23.041Z,-2.50
2019-01-12T01:54:52.948Z,-2.50
2019-01-12T01:57:22.880Z,-2.50
2019-01-12T01:59:52.020Z,-2.40
2019-01-12T02:02:21.662Z,-2.40
2019-01-12T02:04:51.196Z,-2.40
2019-01-12T02:07:20.316Z,-2.50
2019-01-12T02:09:50.161Z,-2.50
2019-01-12T02:12:19.617Z,-2.50
2019-01-12T02:14:51.337Z,-2.50
2019-01-12T02:17:20.999Z,-2.50
2019-01-12T02:19:51.536Z,-2.50
2019-01-12T02:22:21.477Z,-2.40
2019-01-12T02:24:59.961Z,-2.40
2019-01-12T02:27:26.156Z,-2.50
2019-01-12T02:29:55.459Z,-2.50
2019-01-12T02:32:24.898Z,-2.50
2019-01-12T02:34:54.237Z,-2.60
2019-01-12T02:37:24.456Z,-2.60
2019-01-12T02:39:54.238Z,-2.70
2019-01-12T02:42:23.776Z,-2.70
2019-01-12T02:44:53.037Z,-2.80
2019-01-12T02:47:22.156Z,-2.80
2019-01-12T02:49:51.517Z,-2.80
2019-01-12T02:52:21.817Z,-2.80
2019-01-12T02:54:55.056Z,-2.80
2019-01-12T02:57:24.356Z,-2.80
2019-01-12T02:59:53.916Z,-2.80
2019-01-12T03:02:23.761Z,-2.80
2019-01-12T03:04:53.121Z,-2.80
2019-01-12T03:07:22.881Z,-2.70
2019-01-12T03:09:52.599Z,-2.70
2019-01-12T03:12:22.000Z,-2.60
2019-01-12T03:14:51.561Z,-2.60
2019-01-12T03:17:20.879Z,-2.70
2019-01-12T03:19:50.143Z,-2.70
2019-01-12T03:22:19.358Z,-2.60
2019-01-12T03:24:49.138Z,-2.70
2019-01-12T03:27:24.637Z,-2.70
2019-01-12T03:29:53.857Z,-2.80
2019-01-12T03:32:23.237Z,-2.80
2019-01-12T03:34:52.638Z,-2.90
2019-01-12T03:37:21.739Z,-2.90
2019-01-12T03:39:51.378Z,-2.80
2019-01-12T03:42:22.519Z,-2.90
2019-01-12T03:44:51.897Z,-2.90
2019-01-12T03:47:23.976Z,-2.90
2019-01-12T03:49:53.817Z,-2.90
2019-01-12T03:52:24.316Z,-2.80
2019-01-12T03:54:53.657Z,-2.90
2019-01-12T03:57:24.478Z,-2.90
2019-01-12T03:59:54.117Z,-2.90
2019-01-12T04:02:23.743Z,-2.90
2019-01-12T04:04:54.102Z,-2.90
2019-01-12T04:07:23.503Z,-2.90
2019-01-12T04:09:52.943Z,-3.00
2019-01-12T04:12:22.505Z,-3.00
2019-01-12T04:14:51.823Z,-2.90
2019-01-12T04:17:21.623Z,-2.80
2019-01-12T04:19:53.285Z,-2.80
2019-01-12T04:22:22.716Z,-2.90
2019-01-12T04:24:52.696Z,-2.90
2019-01-12T04:27:22.477Z,-2.80
2019-01-12T04:29:52.358Z,-2.80
2019-01-12T04:32:22.237Z,-2.80
2019-01-12T04:34:53.155Z,-2.70
2019-01-12T04:37:22.826Z,-2.70
2019-01-12T04:39:52.316Z,-2.70
2019-01-12T04:42:21.696Z,-2.70
2019-01-12T04:44:51.336Z,-2.70
2019-01-12T04:47:22.197Z,-2.70
2019-01-12T04:49:51.356Z,-2.70
2019-01-12T04:52:20.758Z,-2.70
2019-01-12T04:54:51.177Z,-2.70
2019-01-12T04:57:20.775Z,-2.70
2019-01-12T04:59:49.856Z,-2.70
2019-01-12T05:02:19.308Z,-2.60
2019-01-12T05:04:48.646Z,-2.60
2019-01-12T05:07:18.425Z,-2.70
2019-01-12T05:09:47.825Z,-2.70
2019-01-12T05:12:17.573Z,-2.80
2019-01-12T05:14:47.765Z,-2.80
2019-01-12T05:17:17.126Z,-2.80
2019-01-12T05:19:46.648Z,-2.80
2019-01-12T05:22:16.086Z,-2.70
2019-01-12T05:24:45.645Z,-2.70
2019-01-12T05:27:14.896Z,-2.70
2019-01-12T05:29:44.706Z,-2.70
2019-01-12T05:32:16.047Z,-2.70
2019-01-12T05:34:45.246Z,-2.80
2019-01-12T05:37:14.427Z,-2.70
2019-01-12T05:39:47.885Z,-2.70
2019-01-12T05:42:20.401Z,-2.80
2019-01-12T05:44:49.898Z,-2.80
2019-01-12T05:47:19.518Z,-2.80
2019-01-12T05:49:49.159Z,-2.80
2019-01-12T05:52:21.778Z,-2.80
2019-01-12T05:54:51.181Z,-2.90
2019-01-12T05:57:20.169Z,-2.90
2019-01-12T05:59:50.100Z,-2.90
2019-01-12T06:02:19.355Z,-3.00
2019-01-12T06:04:48.876Z,-3.00
2019-01-12T06:07:18.195Z,-3.10
2019-01-12T06:09:49.704Z,-3.00
2019-01-12T06:12:19.784Z,-3.00
2019-01-12T06:14:51.718Z,-3.00
2019-01-12T06:17:20.939Z,-3.00
2019-01-12T06:19:51.096Z,-3.00
2019-01-12T06:22:23.316Z,-3.00
2019-01-12T06:24:52.876Z,-3.00
2019-01-12T06:27:23.837Z,-3.00
2019-01-12T06:30:07.999Z,-3.00
2019-01-12T06:32:37.816Z,-3.10
2019-01-12T06:35:09.077Z,-3.10
2019-01-12T06:37:38.636Z,-3.20
2019-01-12T06:40:10.937Z,-3.20
2019-01-12T06:42:40.459Z,-3.10
2019-01-12T06:45:17.917Z,-3.10
2019-01-12T06:47:47.201Z,-3.20
2019-01-12T06:50:18.875Z,-3.20
2019-01-12T06:52:48.039Z,-3.10
2019-01-12T06:55:17.396Z,-3.00
2019-01-12T06:57:48.615Z,-3.00
2019-01-12T07:00:19.568Z,-2.90
2019-01-12T07:02:50.573Z,-2.90
2019-01-12T07:05:20.308Z,-2.80
2019-01-12T07:07:52.537Z,-2.70
2019-01-12T07:10:22.719Z,-2.70
2019-01-12T07:12:52.018Z,-2.60
2019-01-12T07:15:21.244Z,-2.50
2019-01-12T07:17:53.927Z,-2.50
2019-01-12T07:20:23.436Z,-2.40
2019-01-12T07:22:52.676Z,-2.40
2019-01-12T07:25:21.784Z,-2.30
2019-01-12T07:27:51.016Z,-2.20
2019-01-12T07:30:22.095Z,-2.20
2019-01-12T07:32:56.358Z,-2.00
2019-01-12T07:35:28.555Z,-2.00
2019-01-12T07:37:57.757Z,-2.00
2019-01-12T07:40:27.257Z,-1.80
2019-01-12T07:42:56.397Z,-1.80
2019-01-12T07:45:26.395Z,-1.70
2019-01-12T07:47:56.115Z,-1.70
2019-01-12T07:50:25.898Z,-1.60
2019-01-12T07:52:58.675Z,-1.50
2019-01-12T07:55:28.297Z,-1.50
2019-01-12T07:57:58.398Z,-1.50
2019-01-12T08:00:30.726Z,-1.60
2019-01-12T08:03:00.725Z,-1.50
2019-01-12T08:05:54.259Z,-1.50
2019-01-12T08:08:23.340Z,-1.60
2019-01-12T08:10:56.019Z,-1.50
2019-01-12T08:13:25.416Z,-1.40
2019-01-12T08:15:55.287Z,-1.20
2019-01-12T08:18:24.269Z,-1.20
2019-01-12T08:20:55.858Z,-1.20
2019-01-12T08:23:24.852Z,-1.10
2019-01-12T08:25:53.811Z,-1.00
2019-01-12T08:28:23.386Z,-0.80
2019-01-12T08:30:52.963Z,-0.70
2019-01-12T08:33:25.445Z,-0.50
2019-01-12T08:35:55.123Z,-0.30
2019-01-12T08:38:24.436Z,-0.10
2019-01-12T08:40:53.596Z,0.00
2019-01-12T08:43:23.037Z,0.20
2019-01-12T08:45:51.964Z,0.30
2019-01-12T08:48:21.263Z,0.40
2019-01-12T08:50:53.446Z,0.50
2019-01-12T08:53:23.622Z,0.60
2019-01-12T08:55:53.281Z,0.70
2019-01-12T08:58:22.861Z,0.70
2019-01-12T09:00:52.480Z,0.90
2019-01-12T09:03:22.422Z,1.00
2019-01-12T09:05:51.738Z,1.00
2019-01-12T09:08:20.897Z,1.10
2019-01-12T09:10:50.297Z,1.20
2019-01-12T09:13:19.847Z,1.30
2019-01-12T09:15:48.935Z,1.50
2019-01-12T09:18:17.999Z,1.60
2019-01-12T09:20:47.492Z,1.70
2019-01-12T09:23:16.784Z,1.50
2019-01-12T09:25:49.782Z,1.60
2019-01-12T09:28:19.505Z,1.70
2019-01-12T09:30:48.797Z,1.80
2019-01-12T09:33:17.824Z,2.00
2019-01-12T09:35:50.582Z,2.20
2019-01-12T09:38:19.662Z,2.50
2019-01-12T09:40:49.044Z,2.50
2019-01-12T09:43:18.123Z,2.60
2019-01-12T09:45:51.162Z,2.60
2019-01-12T09:48:20.407Z,2.60
2019-01-12T09:50:49.423Z,2.70
2019-01-12T09:53:18.523Z,2.70
2019-01-12T09:55:48.203Z,2.80
2019-01-12T09:58:17.562Z,2.90
2019-01-12T10:00:46.706Z,2.90
2019-01-12T10:03:16.122Z,2.90
2019-01-12T10:05:49.163Z,3.00
2019-01-12T10:08:18.661Z,3.10
2019-01-12T10:10:47.996Z,3.20
2019-01-12T10:13:17.438Z,3.10
2019-01-12T10:15:46.496Z,3.30
2019-01-12T10:18:17.876Z,3.40
2019-01-12T10:20:47.106Z,3.50
2019-01-12T10:23:18.082Z,3.50
2019-01-12T10:25:48.148Z,3.40
2019-01-12T10:28:19.697Z,3.40
2019-01-12T10:30:51.226Z,3.40
2019-01-12T10:33:21.110Z,3.40
2019-01-12T10:35:50.220Z,3.40
2019-01-12T10:38:26.166Z,3.30
2019-01-12T10:40:55.199Z,3.40
2019-01-12T10:43:25.856Z,3.60
2019-01-12T10:45:54.939Z,3.60
2019-01-12T10:48:24.194Z,3.70
2019-01-12T10:50:53.400Z,3.60
2019-01-12T10:53:22.496Z,3.70
2019-01-12T10:55:54.981Z,3.80
2019-01-12T10:58:24.375Z,4.00
2019-01-12T11:00:53.886Z,4.00
2019-01-12T11:03:24.622Z,4.00
2019-01-12T11:05:53.726Z,4.10
2019-01-12T11:08:22.808Z,4.10
2019-01-12T11:10:53.502Z,4.10
2019-01-12T11:13:23.261Z,4.00
2019-01-12T11:15:52.802Z,4.10
2019-01-12T11:18:22.137Z,4.20
2019-01-12T11:20:51.376Z,4.30
2019-01-12T11:23:20.456Z,4.40
2019-01-12T11:25:49.817Z,4.50
2019-01-12T11:28:19.881Z,4.50
2019-01-12T11:30:49.281Z,4.60
2019-01-12T11:33:18.382Z,4.60
2019-01-12T11:38:45.743Z,4.50
2019-01-12T11:41:15.043Z,4.50
2019-01-12T11:43:44.823Z,4.50
2019-01-12T11:46:14.580Z,4.60
2019-01-12T11:48:43.903Z,4.70
2019-01-12T11:51:13.762Z,4.70
2019-01-12T11:53:43.802Z,4.60
2019-01-12T11:56:13.502Z,4.60
2019-01-12T11:58:43.082Z,4.60
2019-01-12T12:01:12.169Z,4.60
2019-01-12T12:03:42.052Z,4.50
2019-01-12T12:06:11.365Z,4.50
2019-01-12T12:08:41.144Z,4.50
2019-01-12T12:11:10.725Z,4.50
2019-01-12T12:13:40.155Z,4.50
2019-01-12T12:16:09.256Z,4.60
2019-01-12T12:18:38.932Z,4.60
2019-01-12T12:21:07.957Z,4.60
2019-01-12T12:23:36.996Z,4.60
2019-01-12T12:26:06.096Z,4.60
2019-01-12T12:28:35.631Z,4.60
2019-01-12T12:31:07.156Z,4.60
2019-01-12T12:33:36.336Z,4.50
2019-01-12T12:36:10.890Z,4.40
2019-01-12T12:38:40.123Z,4.40
2019-01-12T12:41:09.284Z,4.30
2019-01-12T12:43:38.584Z,4.40
2019-01-12T12:46:07.982Z,4.40
2019-01-12T12:48:37.346Z,4.40
2019-01-12T12:51:08.999Z,4.40
2019-01-12T12:53:38.831Z,4.40
2019-01-12T12:56:08.298Z,4.50
2019-01-12T12:58:38.118Z,4.50
2019-01-12T13:01:09.280Z,4.60
2019-01-12T13:03:41.361Z,4.60
2019-01-12T13:06:11.140Z,4.70
2019-01-12T13:08:48.275Z,4.70
2019-01-12T13:11:12.318Z,4.70
2019-01-12T13:13:42.758Z,4.70
2019-01-12T13:16:11.910Z,4.60
2019-01-12T13:18:41.800Z,4.60
2019-01-12T13:21:11.299Z,4.50
2019-01-12T13:23:41.519Z,4.40
2019-01-12T13:26:11.379Z,4.40
2019-01-12T13:28:41.018Z,4.40
2019-01-12T13:31:12.496Z,4.30
2019-01-12T13:33:41.736Z,4.30
2019-01-12T13:36:13.116Z,4.30
2019-01-12T13:38:43.095Z,4.30
2019-01-12T13:41:15.896Z,4.40
2019-01-12T13:43:52.095Z,4.40
2019-01-12T13:46:22.796Z,4.40
2019-01-12T13:49:01.616Z,4.40
2019-01-12T13:51:31.519Z,4.40
2019-01-12T13:54:01.116Z,4.50
2019-01-12T13:56:30.437Z,4.50
2019-01-12T13:58:59.557Z,4.60
2019-01-12T14:01:29.302Z,4.60
2019-01-12T14:04:00.021Z,4.70
2019-01-12T14:06:30.079Z,4.70
2019-01-12T14:08:59.600Z,4.80
2019-01-12T14:11:33.778Z,4.70
2019-01-12T14:14:04.117Z,4.80
2019-01-12T14:16:33.598Z,4.80
2019-01-12T14:19:03.596Z,4.80
2019-01-12T14:21:34.319Z,4.70
2019-01-12T14:24:06.175Z,4.60
2019-01-12T14:26:36.476Z,4.60
2019-01-12T14:29:09.480Z,4.50
2019-01-12T14:31:39.180Z,4.50
2019-01-12T14:34:08.483Z,4.50
2019-01-12T14:36:37.799Z,4.40
2019-01-12T14:39:10.063Z,4.30
2019-01-12T14:41:39.141Z,4.30
2019-01-12T14:44:09.226Z,4.20
2019-01-12T14:46:38.509Z,4.20
2019-01-12T14:49:08.227Z,4.10
2019-01-12T14:51:37.370Z,4.00
2019-01-12T14:54:06.606Z,4.00
2019-01-12T14:56:36.068Z,3.90
2019-01-12T14:59:05.679Z,3.80
2019-01-12T15:01:34.846Z,3.80
2019-01-12T15:04:05.649Z,3.80
2019-01-12T15:06:35.231Z,3.70
2019-01-12T15:09:07.407Z,3.70
2019-01-12T15:11:37.159Z,3.60
2019-01-12T15:14:06.941Z,3.60
2019-01-12T15:16:36.762Z,3.50
2019-01-12T15:19:06.901Z,3.40
2019-01-12T15:21:37.641Z,3.40
2019-01-12T15:24:06.781Z,3.40
2019-01-12T15:26:35.969Z,3.30
2019-01-12T15:29:05.160Z,3.20
2019-01-12T15:31:34.722Z,3.20
2019-01-12T15:34:05.359Z,3.10
2019-01-12T15:36:34.959Z,3.10
2019-01-12T15:39:05.516Z,3.10
2019-01-12T15:41:36.070Z,2.90
2019-01-12T15:44:06.757Z,2.80
2019-01-12T15:46:36.776Z,2.80
2019-01-12T15:49:09.139Z,2.80
2019-01-12T15:51:38.365Z,2.80
2019-01-12T15:54:08.023Z,2.80
2019-01-12T15:56:37.217Z,2.80
2019-01-12T15:59:06.734Z,2.80
2019-01-12T16:01:35.881Z,2.70
2019-01-12T16:04:05.241Z,2.70
2019-01-12T16:06:37.762Z,2.80
2019-01-12T16:09:09.676Z,2.80
2019-01-12T16:11:39.137Z,2.80
2019-01-12T16:14:08.237Z,2.80
2019-01-12T16:16:40.782Z,2.90
2019-01-12T16:19:09.862Z,2.90
2019-01-12T16:21:39.275Z,2.80
2019-01-12T16:24:10.349Z,2.70
2019-01-12T16:26:40.045Z,2.70
2019-01-12T16:29:09.104Z,2.60
2019-01-12T16:31:38.759Z,2.50
2019-01-12T16:34:08.001Z,2.30
2019-01-12T16:36:37.880Z,2.20
2019-01-12T16:39:08.976Z,2.30
2019-01-12T16:41:38.039Z,2.20
2019-01-12T16:44:08.419Z,2.10
2019-01-12T16:46:37.779Z,2.00
2019-01-12T16:49:07.124Z,2.00
2019-01-12T16:51:36.489Z,2.10
2019-01-12T16:54:06.089Z,2.20
2019-01-12T16:56:35.864Z,2.10
2019-01-12T16:59:05.068Z,2.10
2019-01-12T17:01:34.619Z,2.20
2019-01-12T17:04:04.382Z,2.20
2019-01-12T17:06:33.540Z,2.30
2019-01-12T17:09:03.280Z,2.70
2019-01-12T17:11:35.098Z,2.80
2019-01-12T17:14:04.682Z,2.70
2019-01-12T17:16:33.812Z,2.70
2019-01-12T17:19:02.983Z,2.90
2019-01-12T17:21:32.333Z,2.80
2019-01-12T17:24:01.767Z,2.70
2019-01-12T17:26:31.067Z,2.60
2019-01-12T17:29:00.906Z,2.30
2019-01-12T17:31:30.642Z,2.20
2019-01-12T17:33:59.667Z,2.20
2019-01-12T17:36:28.741Z,2.20
2019-01-12T17:38:57.920Z,2.10
2019-01-12T17:41:27.198Z,2.10
2019-01-12T17:43:57.682Z,2.00
2019-01-12T17:46:28.043Z,1.90
2019-01-12T17:48:57.319Z,1.90
2019-01-12T17:51:26.499Z,1.90
2019-01-12T17:53:57.039Z,1.80
2019-01-12T17:56:25.981Z,1.70
2019-01-12T17:58:55.361Z,1.70
2019-01-12T18:01:24.893Z,1.70
2019-01-12T18:03:54.207Z,1.90
2019-01-12T18:06:26.280Z,1.90
2019-01-12T18:08:56.064Z,2.00
2019-01-12T18:11:25.531Z,2.00
2019-01-12T18:13:56.655Z,2.00
2019-01-12T18:16:30.393Z,2.00
2019-01-12T18:18:59.847Z,2.00
2019-01-12T18:21:30.146Z,2.00
2019-01-12T18:23:59.424Z,2.00
2019-01-12T18:26:29.697Z,2.00
2019-01-12T18:28:59.923Z,2.00
2019-01-12T18:31:30.765Z,2.00
2019-01-12T18:34:00.528Z,2.00
2019-01-12T18:36:29.625Z,2.10
2019-01-12T18:38:59.139Z,2.00
2019-01-12T18:41:28.960Z,2.00
2019-01-12T18:44:01.942Z,1.90
2019-01-12T18:46:30.996Z,1.90
2019-01-12T18:49:00.458Z,2.00
2019-01-12T18:51:32.462Z,2.00
2019-01-12T18:54:01.917Z,2.00
2019-01-12T18:56:31.104Z,2.00
2019-01-12T18:59:00.515Z,1.90
2019-01-12T19:01:30.262Z,2.00
2019-01-12T19:04:00.209Z,2.10
2019-01-12T19:06:29.658Z,2.00
2019-01-12T19:08:59.461Z,2.00
2019-01-12T19:11:30.344Z,2.00
2019-01-12T19:13:59.641Z,2.10
2019-01-12T19:16:29.344Z,2.00
2019-01-12T19:19:01.883Z,1.90
2019-01-12T19:21:31.529Z,1.90
2019-01-12T19:24:00.641Z,1.80
2019-01-12T19:26:30.361Z,1.80
2019-01-12T19:29:06.148Z,1.70
2019-01-12T19:31:31.126Z,1.60
2019-01-12T19:34:00.299Z,1.60
2019-01-12T19:36:30.223Z,1.60
2019-01-12T19:39:01.281Z,1.60
2019-01-12T19:41:30.498Z,1.40
2019-01-12T19:43:59.492Z,1.40
2019-01-12T19:46:28.459Z,1.40
2019-01-12T19:49:01.500Z,1.40
2019-01-12T19:51:31.243Z,1.40
2019-01-12T19:54:00.681Z,1.40
2019-01-12T19:56:30.049Z,1.20
2019-01-12T19:58:59.392Z,1.10
2019-01-12T20:01:28.786Z,1.00
2019-01-12T20:04:01.279Z,1.00
2019-01-12T20:06:30.424Z,1.00
2019-01-12T20:09:03.125Z,1.10
2019-01-12T20:11:32.855Z,1.10
2019-01-12T20:14:05.364Z,1.10
2019-01-12T20:16:34.766Z,1.10
2019-01-12T20:19:05.139Z,1.10
2019-01-12T20:21:34.728Z,1.20
2019-01-12T20:24:04.055Z,1.10
2019-01-12T20:26:33.623Z,1.00
2019-01-12T20:29:02.786Z,1.00
2019-01-12T20:31:52.962Z,1.10
2019-01-12T20:34:24.956Z,1.20
2019-01-12T20:37:28.986Z,1.10
2019-01-12T20:40:10.609Z,1.20
2019-01-12T20:43:06.969Z,1.20
2019-01-12T20:45:45.476Z,1.20
2019-01-12T20:48:26.236Z,1.20
2019-01-12T20:51:16.505Z,1.20
2019-01-12T20:54:06.439Z,1.20
2019-01-12T20:56:47.799Z,1.20
2019-01-12T20:59:38.319Z,1.20
2019-01-12T21:02:22.444Z,1.20
2019-01-12T21:04:54.724Z,1.20
2019-01-12T21:07:35.435Z,1.40
2019-01-12T21:10:10.698Z,1.50
2019-01-12T21:13:05.987Z,1.50
2019-01-12T21:15:55.980Z,1.50
2019-01-12T21:18:25.364Z,1.50
2019-01-12T21:20:54.660Z,1.60
2019-01-12T21:23:23.896Z,1.50
2019-01-12T21:25:53.303Z,1.50
2019-01-12T21:28:22.312Z,1.50
2019-01-12T21:30:51.966Z,1.50
2019-01-12T21:33:22.605Z,1.50
2019-01-12T21:35:52.381Z,1.40
2019-01-12T21:38:22.021Z,1.30
2019-01-12T21:40:52.313Z,1.30
2019-01-12T21:43:21.306Z,1.30
2019-01-12T21:45:53.305Z,1.40
2019-01-12T21:48:23.246Z,1.40
2019-01-12T21:50:52.446Z,1.40
2019-01-12T21:53:22.004Z,1.30
2019-01-12T21:55:51.485Z,1.30
2019-01-12T21:58:20.925Z,1.20
2019-01-12T22:00:50.181Z,1.20
2019-01-12T22:03:20.083Z,1.30
2019-01-12T22:05:49.501Z,1.20
2019-01-12T22:08:19.201Z,1.20
2019-01-12T22:10:48.361Z,1.10
2019-01-12T22:13:17.442Z,0.90
2019-01-12T22:15:46.660Z,0.90
2019-01-12T22:18:16.026Z,0.80
2019-01-12T22:20:46.660Z,0.80
2019-01-12T22:23:18.010Z,0.70
2019-01-12T22:25:50.214Z,0.70
2019-01-12T22:28:20.329Z,0.60
2019-01-12T22:30:50.323Z,0.50
2019-01-12T22:33:23.394Z,0.40
2019-01-12T22:35:54.655Z,0.40
2019-01-12T22:38:25.074Z,0.40
2019-01-12T22:40:56.832Z,0.30
2019-01-12T22:43:26.638Z,0.30
2019-01-12T22:45:56.796Z,0.20
2019-01-12T22:48:26.956Z,0.20
2019-01-12T22:50:56.638Z,0.20
2019-01-12T22:53:26.977Z,0.10
2019-01-12T22:55:56.797Z,0.10
2019-01-12T22:58:25.926Z,0.10
2019-01-12T23:01:05.800Z,0.10
2019-01-12T23:03:35.304Z,0.00
2019-01-12T23:06:04.580Z,0.00
2019-01-12T23:08:33.855Z,-0.10
2019-01-12T23:11:03.715Z,-0.30
2019-01-12T23:13:36.537Z,-0.30
2019-01-12T23:16:06.675Z,-0.40
2019-01-12T23:18:36.135Z,-0.30
2019-01-12T23:21:05.935Z,-0.30
2019-01-12T23:23:35.255Z,-0.30
2019-01-12T23:26:06.097Z,-0.30
2019-01-12T23:28:35.495Z,-0.30
2019-01-12T23:31:05.823Z,-0.20
2019-01-12T23:33:35.636Z,-0.20
2019-01-12T23:36:05.475Z,-0.10
2019-01-12T23:38:34.756Z,-0.10
2019-01-12T23:41:03.996Z,-0.10
2019-01-12T23:43:34.057Z,-0.10
2019-01-12T23:46:03.556Z,0.00
2019-01-12T23:48:33.236Z,-0.10
2019-01-12T23:51:21.676Z,-0.20
2019-01-12T23:53:50.915Z,-0.30
2019-01-12T23:56:23.375Z,-0.20
2019-01-12T23:58:52.757Z,-0.20
